Time;durP1;ratioP1;P1;durP2;ratioP2;P2;SDS_P1;SDS_P2;PMS_P1;PMS_P2;Temp;Humidity;BMP_temperature;BMP_pressure;BME280_temperature;BME280_humidity;BME280_pressure;Samples;Min_cycle;Max_cycle;Signal;HPM_P1;HPM_P2
2023/05/01 00:01:04;;;;;;;3.33;2.50;;;;;;;;;;5022028;28;20739;-83
2023/05/01 00:03:32;;;;;;;7.25;3.47;;;;;;;;;;5022557;28;20207;-82
2023/05/01 00:06:04;;;;;;;3.40;2.40;;;;;;;;;;5022131;28;20250;-83
2023/05/01 00:08:31;;;;;;;2.30;2.10;;;;;;;;;;5015635;28;20227;-82
2023/05/01 00:11:08;;;;;;;2.97;2.10;;;;;;;;;;5002638;28;20230;-83
2023/05/01 00:13:36;;;;;;;4.28;2.72;;;;;;;;;;5003766;28;20213;-83
2023/05/01 00:16:07;;;;;;;2.33;2.08;;;;;;;;;;5002809;28;20227;-83
2023/05/01 00:18:35;;;;;;;3.15;1.98;;;;;;;;;;5022241;28;20226;-83
2023/05/01 00:21:02;;;;;;;2.40;1.98;;;;;;;;;;5022234;28;20209;-83
2023/05/01 00:23:30;;;;;;;3.25;1.98;;;;;;;;;;5021707;28;20206;-83
2023/05/01 00:25:57;;;;;;;2.45;2.25;;;;;;;;;;5021536;28;20314;-83
2023/05/01 00:28:26;;;;;;;2.97;2.42;;;;;;;;;;5021352;28;20250;-83
2023/05/01 00:30:54;;;;;;;2.25;1.95;;;;;;;;;;5021736;28;20621;-83
2023/05/01 00:33:21;;;;;;;3.35;2.10;;;;;;;;;;5021541;28;20235;-83
2023/05/01 00:35:50;;;;;;;2.50;2.30;;;;;;;;;;5021902;28;20283;-83
2023/05/01 00:38:17;;;;;;;2.03;1.67;;;;;;;;;;5016884;28;20290;-82
2023/05/01 00:40:46;;;;;;;2.05;1.63;;;;;;;;;;5001826;28;20207;-83
2023/05/01 00:43:13;;;;;;;2.13;1.85;;;;;;;;;;5002297;28;20394;-83
2023/05/01 00:45:45;;;;;;;1.75;1.60;;;;;;;;;;5002635;28;20262;-83
2023/05/01 00:48:13;;;;;;;1.58;1.48;;;;;;;;;;5020052;28;20227;-83
2023/05/01 00:50:40;;;;;;;2.17;1.30;;;;;;;;;;5022434;28;20241;-83
2023/05/01 00:53:08;;;;;;;1.90;1.80;;;;;;;;;;5028354;28;20273;-83
2023/05/01 00:55:35;;;;;;;1.30;1.20;;;;;;;;;;5025646;28;20250;-83
2023/05/01 00:58:03;;;;;;;1.85;1.50;;;;;;;;;;5041454;28;20240;-83
2023/05/01 01:00:31;;;;;;;1.25;1.17;;;;;;;;;;5041862;28;20202;-83
2023/05/01 01:03:00;;;;;;;1.67;1.52;;;;;;;;;;5041064;28;20209;-83
2023/05/01 01:05:29;;;;;;;2.00;1.60;;;;;;;;;;5040848;28;20618;-83
2023/05/01 01:08:10;;;;;;;1.48;1.30;;;;;;;;;;5039958;28;20206;-83
2023/05/01 01:10:43;;;;;;;2.22;1.60;;;;;;;;;;5025326;28;20186;-83
2023/05/01 01:13:18;;;;;;;1.55;1.45;;;;;;;;;;5025393;28;20275;-83
2023/05/01 01:15:51;;;;;;;2.00;1.80;;;;;;;;;;5025787;28;20288;-83
2023/05/01 01:18:25;;;;;;;2.25;1.70;;;;;;;;;;5025322;28;20266;-83
2023/05/01 01:20:58;;;;;;;2.15;1.88;;;;;;;;;;5026058;28;20214;-83
2023/05/01 01:23:43;;;;;;;1.48;1.38;;;;;;;;;;5025229;28;20301;-83
2023/05/01 01:26:39;;;;;;;1.48;1.38;;;;;;;;;;5025015;28;20313;-83
2023/05/01 01:29:39;;;;;;;3.03;1.70;;;;;;;;;;5025358;28;20233;-83
2023/05/01 01:32:30;;;;;;;3.92;1.40;;;;;;;;;;5025531;28;20195;-83
2023/05/01 01:35:05;;;;;;;2.13;1.70;;;;;;;;;;5025179;28;20215;-83
2023/05/01 01:37:40;;;;;;;1.35;1.25;;;;;;;;;;5024672;28;20202;-83
2023/05/01 01:40:10;;;;;;;3.15;1.30;;;;;;;;;;5025303;28;20297;-83
2023/05/01 01:42:41;;;;;;;1.30;1.20;;;;;;;;;;5024338;28;20572;-83
2023/05/01 01:45:15;;;;;;;1.40;1.30;;;;;;;;;;5024912;28;20226;-83
2023/05/01 01:47:43;;;;;;;1.73;1.63;;;;;;;;;;5023947;28;20234;-83
2023/05/01 01:50:13;;;;;;;3.22;1.90;;;;;;;;;;5024750;28;20258;-83
2023/05/01 01:52:43;;;;;;;1.85;1.55;;;;;;;;;;5024313;28;20207;-83
2023/05/01 01:55:12;;;;;;;1.90;1.77;;;;;;;;;;5025276;28;20253;-83
2023/05/01 01:57:42;;;;;;;1.60;1.50;;;;;;;;;;5024139;28;20290;-83
2023/05/01 02:00:13;;;;;;;1.60;1.50;;;;;;;;;;5024418;28;20207;-83
2023/05/01 02:02:40;;;;;;;1.50;1.40;;;;;;;;;;5024897;28;20633;-83
2023/05/01 02:05:11;;;;;;;1.50;1.40;;;;;;;;;;5024498;28;20290;-83
2023/05/01 02:07:40;;;;;;;1.50;1.40;;;;;;;;;;5024536;28;20289;-83
2023/05/01 02:10:12;;;;;;;1.67;1.45;;;;;;;;;;5004850;28;20295;-83
2023/05/01 02:12:40;;;;;;;2.15;1.42;;;;;;;;;;5005182;28;20207;-83
2023/05/01 02:15:09;;;;;;;1.80;1.70;;;;;;;;;;5004946;28;20291;-83
2023/05/01 02:17:38;;;;;;;2.47;1.77;;;;;;;;;;5017645;28;20203;-84
2023/05/01 02:20:07;;;;;;;1.70;1.60;;;;;;;;;;5022669;28;20286;-83
2023/05/01 02:22:36;;;;;;;1.95;1.45;;;;;;;;;;5024890;28;20266;-83
2023/05/01 02:25:06;;;;;;;2.83;1.45;;;;;;;;;;5023962;28;20635;-83
2023/05/01 02:27:37;;;;;;;2.28;1.48;;;;;;;;;;5023758;28;20294;-83
2023/05/01 02:30:06;;;;;;;2.33;1.45;;;;;;;;;;5023709;28;20310;-83
2023/05/01 02:32:33;;;;;;;2.53;1.70;;;;;;;;;;5023614;28;20286;-83
2023/05/01 02:35:01;;;;;;;3.50;1.77;;;;;;;;;;5024334;28;20262;-83
2023/05/01 02:37:29;;;;;;;1.50;1.40;;;;;;;;;;5023828;28;20684;-83
2023/05/01 02:39:58;;;;;;;1.98;1.73;;;;;;;;;;5005169;28;20235;-83
2023/05/01 02:42:26;;;;;;;2.70;1.70;;;;;;;;;;5003354;28;20238;-83
2023/05/01 02:44:57;;;;;;;1.67;1.58;;;;;;;;;;5003609;28;20232;-83
2023/05/01 02:47:26;;;;;;;2.50;2.30;;;;;;;;;;5015321;28;20286;-83
2023/05/01 02:49:53;;;;;;;1.52;1.42;;;;;;;;;;5023687;28;20234;-84
2023/05/01 02:52:22;;;;;;;1.55;1.13;;;;;;;;;;5023271;28;20283;-83
2023/05/01 02:54:50;;;;;;;1.40;1.30;;;;;;;;;;5023881;28;20718;-83
2023/05/01 02:57:19;;;;;;;2.13;2.03;;;;;;;;;;5023140;28;20265;-83
2023/05/01 02:59:47;;;;;;;1.95;1.85;;;;;;;;;;5022662;28;20210;-83
2023/05/01 03:02:15;;;;;;;2.97;1.67;;;;;;;;;;5023305;28;20294;-83
2023/05/01 03:04:43;;;;;;;1.80;1.25;;;;;;;;;;5022807;28;20580;-83
2023/05/01 03:07:11;;;;;;;2.08;1.30;;;;;;;;;;5023855;28;20657;-83
2023/05/01 03:09:38;;;;;;;3.08;1.38;;;;;;;;;;5023941;28;20230;-83
2023/05/01 03:12:06;;;;;;;1.30;1.20;;;;;;;;;;5023502;28;20231;-83
2023/05/01 03:14:35;;;;;;;1.30;1.17;;;;;;;;;;5023372;28;20250;-83
2023/05/01 03:17:02;;;;;;;1.60;1.50;;;;;;;;;;5023677;28;20246;-83
2023/05/01 03:19:30;;;;;;;1.67;1.58;;;;;;;;;;5023623;28;20206;-83
2023/05/01 03:21:58;;;;;;;1.35;1.23;;;;;;;;;;5023702;28;20199;-83
2023/05/01 03:24:25;;;;;;;2.25;2.10;;;;;;;;;;5023679;28;20285;-84
2023/05/01 03:26:53;;;;;;;1.77;1.48;;;;;;;;;;5022943;28;20203;-83
2023/05/01 03:29:20;;;;;;;1.27;1.17;;;;;;;;;;5023133;28;20323;-83
2023/05/01 03:31:49;;;;;;;1.15;1.05;;;;;;;;;;5022432;28;20700;-83
2023/05/01 03:34:16;;;;;;;1.60;1.50;;;;;;;;;;5022912;28;20217;-83
2023/05/01 03:36:44;;;;;;;1.75;1.40;;;;;;;;;;5023470;28;20238;-83
2023/05/01 03:39:11;;;;;;;2.55;1.50;;;;;;;;;;5022728;28;20210;-83
2023/05/01 03:41:39;;;;;;;2.22;1.55;;;;;;;;;;5022746;28;20222;-83
2023/05/01 03:44:06;;;;;;;2.13;1.92;;;;;;;;;;5023294;28;20200;-83
2023/05/01 03:46:34;;;;;;;2.22;2.08;;;;;;;;;;5023409;28;20294;-83
2023/05/01 03:49:02;;;;;;;2.60;1.55;;;;;;;;;;5023875;28;20203;-84
2023/05/01 03:51:30;;;;;;;1.60;1.50;;;;;;;;;;5023563;28;20259;-84
2023/05/01 03:53:58;;;;;;;2.42;2.08;;;;;;;;;;5023408;28;20290;-83
2023/05/01 03:56:26;;;;;;;2.78;1.80;;;;;;;;;;5023279;28;20230;-83
2023/05/01 03:58:53;;;;;;;1.50;1.40;;;;;;;;;;5023787;28;20269;-84
2023/05/01 04:01:21;;;;;;;5.05;1.83;;;;;;;;;;5022516;28;20267;-83
2023/05/01 04:03:48;;;;;;;2.22;2.03;;;;;;;;;;5023773;28;20202;-83
2023/05/01 04:06:17;;;;;;;2.85;1.92;;;;;;;;;;5023532;28;20290;-83
2023/05/01 04:08:45;;;;;;;1.70;1.60;;;;;;;;;;5022981;28;20237;-83
2023/05/01 04:11:12;;;;;;;2.47;1.70;;;;;;;;;;5023328;28;20262;-84
2023/05/01 04:13:40;;;;;;;2.05;1.83;;;;;;;;;;5023688;28;20290;-83
2023/05/01 04:16:08;;;;;;;1.73;1.60;;;;;;;;;;5022351;28;20223;-83
2023/05/01 04:18:35;;;;;;;2.28;1.90;;;;;;;;;;5022998;28;20207;-82
2023/05/01 04:21:03;;;;;;;1.15;1.10;;;;;;;;;;5022838;28;20261;-83
2023/05/01 04:23:32;;;;;;;2.45;1.77;;;;;;;;;;5023265;28;20262;-83
2023/05/01 04:25:59;;;;;;;1.75;1.55;;;;;;;;;;5023377;28;20223;-83
2023/05/01 04:28:29;;;;;;;3.10;1.73;;;;;;;;;;5023429;28;20206;-83
2023/05/01 04:30:57;;;;;;;1.33;1.20;;;;;;;;;;5023569;28;20222;-83
2023/05/01 04:33:26;;;;;;;2.45;2.03;;;;;;;;;;5024185;28;20203;-83
2023/05/01 04:35:54;;;;;;;1.55;1.45;;;;;;;;;;5023818;28;20223;-83
2023/05/01 04:38:22;;;;;;;1.83;1.67;;;;;;;;;;5022447;28;20206;-83
2023/05/01 04:40:51;;;;;;;1.50;1.20;;;;;;;;;;5023403;28;20606;-83
2023/05/01 04:43:19;;;;;;;2.22;1.88;;;;;;;;;;5022406;28;20203;-83
2023/05/01 04:45:46;;;;;;;1.80;1.70;;;;;;;;;;5023056;28;20227;-83
2023/05/01 04:48:14;;;;;;;1.75;1.65;;;;;;;;;;5023046;28;20731;-83
2023/05/01 04:50:41;;;;;;;1.58;1.38;;;;;;;;;;5022923;28;20242;-83
2023/05/01 04:53:09;;;;;;;2.20;2.00;;;;;;;;;;5023053;28;20241;-84
2023/05/01 04:55:36;;;;;;;2.08;1.52;;;;;;;;;;5022438;28;20214;-83
2023/05/01 04:58:05;;;;;;;1.50;1.40;;;;;;;;;;5022375;28;20215;-83
2023/05/01 05:00:33;;;;;;;2.00;1.80;;;;;;;;;;5023678;28;20718;-83
2023/05/01 05:03:00;;;;;;;2.67;2.30;;;;;;;;;;5022923;28;20266;-83
2023/05/01 05:05:28;;;;;;;1.60;1.50;;;;;;;;;;5022889;28;20250;-83
2023/05/01 05:07:55;;;;;;;1.85;1.60;;;;;;;;;;5022473;28;20238;-83
2023/05/01 05:10:23;;;;;;;1.77;1.60;;;;;;;;;;5022822;28;20274;-83
2023/05/01 05:12:50;;;;;;;3.05;1.98;;;;;;;;;;5022457;28;20321;-83
2023/05/01 05:15:20;;;;;;;2.55;2.25;;;;;;;;;;5022379;28;20290;-84
2023/05/01 05:17:47;;;;;;;2.38;1.70;;;;;;;;;;5022630;28;20306;-83
2023/05/01 05:20:15;;;;;;;2.75;1.70;;;;;;;;;;5023078;28;20234;-83
2023/05/01 05:22:42;;;;;;;2.17;1.98;;;;;;;;;;5023077;28;20287;-83
2023/05/01 05:25:11;;;;;;;2.05;1.70;;;;;;;;;;5022643;28;20226;-83
2023/05/01 05:27:38;;;;;;;2.15;1.90;;;;;;;;;;5023012;28;20199;-84
2023/05/01 05:30:07;;;;;;;2.00;1.80;;;;;;;;;;5022721;28;20235;-83
2023/05/01 05:32:36;;;;;;;2.20;1.95;;;;;;;;;;5022599;28;20242;-83
2023/05/01 05:35:05;;;;;;;2.67;1.95;;;;;;;;;;5022635;28;20215;-83
2023/05/01 05:37:32;;;;;;;4.00;1.70;;;;;;;;;;5022081;28;20203;-84
2023/05/01 05:40:00;;;;;;;3.42;2.33;;;;;;;;;;5022034;28;20234;-84
2023/05/01 05:42:28;;;;;;;4.25;3.15;;;;;;;;;;5021764;28;20252;-85
2023/05/01 05:44:55;;;;;;;2.03;1.80;;;;;;;;;;5022204;28;20227;-84
2023/05/01 05:47:23;;;;;;;2.72;2.22;;;;;;;;;;5020802;28;20237;-85
2023/05/01 05:49:52;;;;;;;5.05;2.85;;;;;;;;;;5020878;28;20266;-85
2023/05/01 05:52:20;;;;;;;2.70;2.50;;;;;;;;;;5020575;28;20238;-85
2023/05/01 05:54:47;;;;;;;2.60;2.40;;;;;;;;;;5021615;28;20728;-85
2023/05/01 05:57:15;;;;;;;2.47;2.28;;;;;;;;;;5024580;28;20294;-85
2023/05/01 05:59:43;;;;;;;2.28;2.08;;;;;;;;;;5025243;28;20227;-84
2023/05/01 06:02:10;;;;;;;2.58;2.38;;;;;;;;;;5024305;28;20206;-85
2023/05/01 06:04:38;;;;;;;2.88;2.58;;;;;;;;;;5023227;28;20298;-85
2023/05/01 06:07:07;;;;;;;2.65;2.45;;;;;;;;;;5023865;28;20231;-85
2023/05/01 06:09:35;;;;;;;2.30;2.10;;;;;;;;;;5007937;28;20207;-85
2023/05/01 06:12:04;;;;;;;2.70;2.03;;;;;;;;;;5004507;28;20223;-85
2023/05/01 06:14:32;;;;;;;2.90;2.33;;;;;;;;;;5004313;28;20295;-85
2023/05/01 06:17:00;;;;;;;4.68;3.30;;;;;;;;;;5011326;28;20235;-85
2023/05/01 06:19:27;;;;;;;5.20;4.68;;;;;;;;;;5023641;28;20203;-85
2023/05/01 06:21:55;;;;;;;3.17;2.47;;;;;;;;;;5023322;28;20289;-87
2023/05/01 06:24:24;;;;;;;2.38;2.13;;;;;;;;;;5022948;28;20222;-85
2023/05/01 06:26:51;;;;;;;2.22;1.90;;;;;;;;;;5022420;28;20282;-85
2023/05/01 06:29:19;;;;;;;6.20;3.08;;;;;;;;;;5022352;28;20232;-85
2023/05/01 06:31:46;;;;;;;4.30;2.45;;;;;;;;;;5022407;28;20219;-85
2023/05/01 06:34:14;;;;;;;3.33;3.00;;;;;;;;;;5021909;28;20210;-85
2023/05/01 06:36:41;;;;;;;4.40;2.97;;;;;;;;;;5021127;28;20622;-85
2023/05/01 06:39:09;;;;;;;5.10;3.53;;;;;;;;;;5021670;28;20664;-85
2023/05/01 06:41:38;;;;;;;3.83;2.85;;;;;;;;;;5022508;28;20258;-85
2023/05/01 06:44:05;;;;;;;3.67;3.00;;;;;;;;;;5020792;28;20226;-85
2023/05/01 06:46:33;;;;;;;9.02;3.33;;;;;;;;;;5022140;28;20693;-85
2023/05/01 06:49:00;;;;;;;3.47;3.00;;;;;;;;;;5021454;28;20923;-84
2023/05/01 06:51:29;;;;;;;3.85;3.50;;;;;;;;;;5021701;28;20199;-85
2023/05/01 06:53:56;;;;;;;4.53;3.22;;;;;;;;;;5021264;28;20203;-85
2023/05/01 06:56:24;;;;;;;5.15;2.92;;;;;;;;;;5021023;28;20313;-85
2023/05/01 06:58:52;;;;;;;3.58;3.05;;;;;;;;;;5020915;28;20278;-85
2023/05/01 07:01:20;;;;;;;5.35;3.78;;;;;;;;;;5021153;28;20195;-85
2023/05/01 07:03:49;;;;;;;5.20;3.25;;;;;;;;;;5020699;28;20731;-85
2023/05/01 07:06:16;;;;;;;3.95;3.15;;;;;;;;;;5019698;28;20736;-85
2023/05/01 07:08:44;;;;;;;4.57;4.18;;;;;;;;;;5020874;28;20210;-85
2023/05/01 07:11:11;;;;;;;4.47;3.80;;;;;;;;;;5020066;28;20286;-85
2023/05/01 07:13:39;;;;;;;4.68;3.75;;;;;;;;;;5020432;28;20305;-85
2023/05/01 07:16:08;;;;;;;6.45;4.65;;;;;;;;;;5020047;28;20317;-85
2023/05/01 07:18:36;;;;;;;8.30;4.75;;;;;;;;;;5020488;28;20204;-85
2023/05/01 07:21:04;;;;;;;6.63;4.93;;;;;;;;;;5020730;28;20199;-85
2023/05/01 07:23:31;;;;;;;5.15;3.60;;;;;;;;;;5020596;28;20628;-85
2023/05/01 07:25:59;;;;;;;4.18;3.78;;;;;;;;;;5020391;28;20314;-85
2023/05/01 07:28:26;;;;;;;6.15;4.25;;;;;;;;;;5019520;28;20199;-85
2023/05/01 07:30:54;;;;;;;4.55;3.80;;;;;;;;;;5019668;28;20203;-85
2023/05/01 07:33:24;;;;;;;3.72;3.42;;;;;;;;;;5020332;28;20236;-85
2023/05/01 07:35:52;;;;;;;5.07;3.85;;;;;;;;;;5019752;28;20250;-84
2023/05/01 07:38:20;;;;;;;4.40;3.17;;;;;;;;;;5019742;28;20242;-85
2023/05/01 07:40:47;;;;;;;9.40;4.15;;;;;;;;;;5019545;28;20282;-86
2023/05/01 07:43:15;;;;;;;4.38;3.97;;;;;;;;;;5019454;28;20290;-85
2023/05/01 07:45:43;;;;;;;5.35;3.60;;;;;;;;;;5019155;28;20222;-85
2023/05/01 07:48:10;;;;;;;4.47;2.88;;;;;;;;;;5001839;28;20227;-85
2023/05/01 07:50:39;;;;;;;7.00;3.42;;;;;;;;;;4998837;28;20238;-85
2023/05/01 07:53:07;;;;;;;4.43;3.20;;;;;;;;;;4998490;28;20258;-84
2023/05/01 07:55:34;;;;;;;3.90;3.58;;;;;;;;;;4998500;28;20266;-85
2023/05/01 07:58:02;;;;;;;2.90;2.70;;;;;;;;;;4998694;28;20207;-85
2023/05/01 08:00:30;;;;;;;3.88;2.50;;;;;;;;;;4997726;28;20207;-84
2023/05/01 08:02:57;;;;;;;5.00;3.28;;;;;;;;;;4998117;28;20616;-85
2023/05/01 08:05:25;;;;;;;6.68;3.58;;;;;;;;;;4997354;28;20262;-85
2023/05/01 08:07:53;;;;;;;6.85;4.07;;;;;;;;;;4998576;28;20986;-85
2023/05/01 08:10:21;;;;;;;7.20;4.22;;;;;;;;;;5016516;28;20207;-85
2023/05/01 08:12:48;;;;;;;3.97;3.42;;;;;;;;;;5016252;28;20223;-85
2023/05/01 08:15:16;;;;;;;4.82;4.13;;;;;;;;;;5017743;28;20258;-85
2023/05/01 08:17:43;;;;;;;3.83;3.53;;;;;;;;;;5018744;28;20222;-86
2023/05/01 08:20:13;;;;;;;3.60;3.30;;;;;;;;;;5016075;28;20266;-85
2023/05/01 08:22:40;;;;;;;4.70;4.20;;;;;;;;;;5016571;28;20222;-85
2023/05/01 08:25:09;;;;;;;3.50;3.17;;;;;;;;;;5017469;28;20267;-85
2023/05/01 08:27:37;;;;;;;3.55;3.20;;;;;;;;;;5016573;28;20619;-85
2023/05/01 08:30:06;;;;;;;5.75;4.35;;;;;;;;;;5016686;28;20623;-85
2023/05/01 08:32:33;;;;;;;8.80;4.32;;;;;;;;;;5016514;28;20653;-85
2023/05/01 08:35:01;;;;;;;5.43;3.00;;;;;;;;;;5016298;28;20246;-84
2023/05/01 08:37:28;;;;;;;3.30;3.00;;;;;;;;;;5017393;28;20241;-85
2023/05/01 08:39:56;;;;;;;5.20;4.53;;;;;;;;;;4998552;28;20253;-86
2023/05/01 08:42:26;;;;;;;4.15;3.72;;;;;;;;;;4996255;28;20210;-85
2023/05/01 08:44:54;;;;;;;4.47;3.40;;;;;;;;;;4996722;28;20256;-83
2023/05/01 08:47:23;;;;;;;5.25;3.63;;;;;;;;;;5007984;28;20579;-85
2023/05/01 08:49:51;;;;;;;4.60;3.50;;;;;;;;;;5015093;28;20206;-86
2023/05/01 08:52:19;;;;;;;4.13;2.88;;;;;;;;;;5015844;28;20233;-85
2023/05/01 08:54:47;;;;;;;4.15;3.80;;;;;;;;;;5015708;28;20313;-86
2023/05/01 08:57:14;;;;;;;5.70;3.90;;;;;;;;;;5016112;28;20294;-86
2023/05/01 08:59:45;;;;;;;6.88;3.47;;;;;;;;;;5014999;28;20285;-85
2023/05/01 09:02:13;;;;;;;4.57;3.25;;;;;;;;;;5021968;28;20607;-85
2023/05/01 09:04:42;;;;;;;2.95;2.72;;;;;;;;;;5014432;28;20221;-85
2023/05/01 09:07:09;;;;;;;2.97;2.47;;;;;;;;;;5002392;28;20668;-85
2023/05/01 09:09:37;;;;;;;3.28;2.92;;;;;;;;;;5013981;28;20207;-85
2023/05/01 09:12:13;;;;;;;5.32;3.33;;;;;;;;;;5008150;28;20286;-85
2023/05/01 09:14:41;;;;;;;3.10;2.85;;;;;;;;;;5026327;28;20709;-84
2023/05/01 09:17:09;;;;;;;3.33;3.03;;;;;;;;;;5024887;28;20290;-85
2023/05/01 09:19:37;;;;;;;3.13;2.83;;;;;;;;;;5024585;28;20199;-86
2023/05/01 09:22:04;;;;;;;6.00;3.53;;;;;;;;;;5019704;28;20229;-85
2023/05/01 09:24:32;;;;;;;3.95;3.22;;;;;;;;;;5015068;28;20226;-88
2023/05/01 09:27:00;;;;;;;3.03;2.83;;;;;;;;;;5013912;28;20191;-86
2023/05/01 09:29:38;;;;;;;3.38;3.17;;;;;;;;;;5016364;28;20199;-85
2023/05/01 09:32:19;;;;;;;3.67;3.00;;;;;;;;;;5019191;28;20374;-85
2023/05/01 09:34:48;;;;;;;5.72;3.30;;;;;;;;;;5018140;28;20237;-85
2023/05/01 09:37:29;;;;;;;3.10;2.80;;;;;;;;;;5017798;28;20203;-86
2023/05/01 09:40:05;;;;;;;3.80;3.38;;;;;;;;;;5018997;28;20203;-85
2023/05/01 09:42:34;;;;;;;3.95;3.45;;;;;;;;;;5018265;28;20191;-85
2023/05/01 09:45:03;;;;;;;3.80;3.50;;;;;;;;;;5016987;28;20219;-87
2023/05/01 09:47:32;;;;;;;4.50;3.83;;;;;;;;;;5016533;28;20206;-85
2023/05/01 09:50:00;;;;;;;4.40;3.40;;;;;;;;;;5016772;28;20675;-85
2023/05/01 09:52:29;;;;;;;5.63;5.00;;;;;;;;;;5016940;28;20581;-86
2023/05/01 09:55:16;;;;;;;4.38;3.15;;;;;;;;;;5016920;28;20343;-85
2023/05/01 09:57:45;;;;;;;3.78;3.30;;;;;;;;;;5016412;28;20249;-85
2023/05/01 10:00:14;;;;;;;3.60;3.30;;;;;;;;;;5017201;28;20210;-85
2023/05/01 10:02:47;;;;;;;3.15;2.60;;;;;;;;;;5017319;28;20734;-86
2023/05/01 10:05:16;;;;;;;2.83;2.63;;;;;;;;;;5016814;28;20226;-86
2023/05/01 10:07:57;;;;;;;3.22;2.92;;;;;;;;;;5017505;28;20661;-86
2023/05/01 10:10:25;;;;;;;4.07;3.28;;;;;;;;;;4997267;28;20271;-86
2023/05/01 10:12:52;;;;;;;3.10;2.53;;;;;;;;;;4998938;28;20203;-86
2023/05/01 10:15:20;;;;;;;3.30;3.00;;;;;;;;;;4997291;28;20255;-85
2023/05/01 10:17:51;;;;;;;4.03;3.03;;;;;;;;;;5011495;28;20242;-86
2023/05/01 10:20:19;;;;;;;3.42;3.13;;;;;;;;;;5017348;28;20203;-85
2023/05/01 10:22:47;;;;;;;4.07;3.25;;;;;;;;;;5016612;28;20195;-85
2023/05/01 10:25:15;;;;;;;3.67;3.38;;;;;;;;;;5015409;28;20219;-86
2023/05/01 10:27:42;;;;;;;3.72;3.35;;;;;;;;;;5015277;28;20231;-85
2023/05/01 10:30:11;;;;;;;3.90;3.50;;;;;;;;;;5015955;28;20627;-85
2023/05/01 10:32:41;;;;;;;3.90;3.50;;;;;;;;;;5015403;28;20294;-86
2023/05/01 10:35:14;;;;;;;5.65;3.50;;;;;;;;;;5015081;28;20233;-86
2023/05/01 10:37:48;;;;;;;3.63;3.33;;;;;;;;;;5015743;28;20191;-85
2023/05/01 10:40:45;;;;;;;3.10;2.80;;;;;;;;;;4996106;28;20223;-86
2023/05/01 10:43:19;;;;;;;3.45;3.15;;;;;;;;;;4996173;28;20234;-86
2023/05/01 10:45:48;;;;;;;3.90;2.92;;;;;;;;;;4995719;28;20224;-86
2023/05/01 10:48:52;;;;;;;3.17;2.88;;;;;;;;;;5013568;28;20265;-85
2023/05/01 10:51:23;;;;;;;2.83;2.63;;;;;;;;;;5015169;28;20198;-87
2023/05/01 10:54:10;;;;;;;3.30;2.72;;;;;;;;;;5015469;28;20286;-86
2023/05/01 10:56:44;;;;;;;2.97;2.75;;;;;;;;;;5015522;28;20184;-85
2023/05/01 10:59:12;;;;;;;4.93;2.83;;;;;;;;;;5015431;28;20700;-86
2023/05/01 11:01:41;;;;;;;2.80;2.58;;;;;;;;;;5015486;28;20287;-89
2023/05/01 11:04:49;;;;;;;3.03;2.78;;;;;;;;;;5015397;28;20202;-87
2023/05/01 11:07:20;;;;;;;4.65;4.25;;;;;;;;;;5014987;28;20214;-85
2023/05/01 11:09:50;;;;;;;3.60;3.30;;;;;;;;;;5014814;28;20290;-85
2023/05/01 11:12:52;;;;;;;4.45;4.05;;;;;;;;;;5014542;28;20207;-87
2023/05/01 11:15:31;;;;;;;2.78;2.58;;;;;;;;;;5014455;28;20227;-86
2023/05/01 11:17:59;;;;;;;3.13;2.53;;;;;;;;;;5014328;28;20652;-86
2023/05/01 11:20:51;;;;;;;5.82;2.58;;;;;;;;;;5014392;28;20283;-85
2023/05/01 11:23:21;;;;;;;3.30;2.90;;;;;;;;;;4999290;28;20281;-86
2023/05/01 11:25:50;;;;;;;2.28;2.08;;;;;;;;;;5014296;28;20733;-86
2023/05/01 11:28:22;;;;;;;1.90;1.80;;;;;;;;;;5014916;28;20195;-86
2023/05/01 11:30:52;;;;;;;2.53;2.33;;;;;;;;;;5014078;28;20199;-86
2023/05/01 11:33:25;;;;;;;2.05;1.92;;;;;;;;;;5014492;28;20637;-86
2023/05/01 11:36:03;;;;;;;2.00;1.45;;;;;;;;;;5014234;28;20231;-86
2023/05/01 11:38:32;;;;;;;2.08;1.83;;;;;;;;;;5014179;28;20211;-86
2023/05/01 11:41:03;;;;;;;2.58;1.63;;;;;;;;;;5013853;28;20211;-86
2023/05/01 11:43:31;;;;;;;2.03;1.92;;;;;;;;;;5013890;28;20269;-87
2023/05/01 11:46:02;;;;;;;1.55;1.45;;;;;;;;;;5013782;28;20301;-86
2023/05/01 11:48:31;;;;;;;1.70;1.60;;;;;;;;;;5013914;28;20203;-86
2023/05/01 11:50:58;;;;;;;1.60;1.50;;;;;;;;;;5013788;28;20595;-85
2023/05/01 11:53:26;;;;;;;1.10;1.10;;;;;;;;;;5013715;28;20199;-86
2023/05/01 11:55:55;;;;;;;1.10;1.10;;;;;;;;;;5013219;28;20262;-86
2023/05/01 11:58:33;;;;;;;1.27;1.17;;;;;;;;;;5013317;28;20214;-86
2023/05/01 12:01:02;;;;;;;1.08;1.05;;;;;;;;;;5013376;28;20195;-87
2023/05/01 12:03:32;;;;;;;1.30;1.23;;;;;;;;;;5013560;28;20218;-85
2023/05/01 12:06:00;;;;;;;1.73;1.38;;;;;;;;;;5013194;28;20230;-87
2023/05/01 12:08:27;;;;;;;1.92;1.70;;;;;;;;;;5012971;28;20263;-85
2023/05/01 12:10:57;;;;;;;2.13;1.38;;;;;;;;;;5013179;28;20290;-86
2023/05/01 12:13:25;;;;;;;1.55;1.45;;;;;;;;;;5013165;28;20591;-87
2023/05/01 12:15:54;;;;;;;2.45;1.80;;;;;;;;;;5013659;28;20269;-86
2023/05/01 12:18:22;;;;;;;1.67;1.58;;;;;;;;;;5013207;28;20578;-85
2023/05/01 12:20:51;;;;;;;2.00;1.90;;;;;;;;;;5013965;28;20286;-85
2023/05/01 12:23:21;;;;;;;1.92;1.63;;;;;;;;;;5014335;28;20207;-86
2023/05/01 12:25:48;;;;;;;1.70;1.60;;;;;;;;;;5014145;28;20276;-86
2023/05/01 12:28:19;;;;;;;1.95;1.85;;;;;;;;;;5013937;28;20655;-86
2023/05/01 12:30:48;;;;;;;1.63;1.52;;;;;;;;;;5013691;28;20184;-86
2023/05/01 12:33:17;;;;;;;1.42;1.33;;;;;;;;;;5013481;28;20656;-86
2023/05/01 12:35:48;;;;;;;1.55;1.45;;;;;;;;;;5012841;28;20679;-86
2023/05/01 12:38:17;;;;;;;1.20;1.20;;;;;;;;;;5008853;28;20273;-86
2023/05/01 12:40:53;;;;;;;1.90;1.80;;;;;;;;;;4993602;28;20378;-86
2023/05/01 12:43:29;;;;;;;3.63;2.00;;;;;;;;;;4993558;28;20850;-86
2023/05/01 12:45:57;;;;;;;2.42;2.25;;;;;;;;;;4993341;28;20215;-86
2023/05/01 12:48:25;;;;;;;1.65;1.55;;;;;;;;;;5012424;28;20633;-86
2023/05/01 12:50:54;;;;;;;1.63;1.52;;;;;;;;;;5013480;28;20203;-85
2023/05/01 12:53:22;;;;;;;1.80;1.70;;;;;;;;;;5012715;28;20202;-87
2023/05/01 12:55:51;;;;;;;1.92;1.83;;;;;;;;;;5012452;28;20227;-86
2023/05/01 12:58:19;;;;;;;1.30;1.30;;;;;;;;;;5012508;28;20217;-86
2023/05/01 13:00:50;;;;;;;1.40;1.30;;;;;;;;;;5012890;28;20199;-87
2023/05/01 13:03:24;;;;;;;1.60;1.50;;;;;;;;;;5012714;28;20211;-86
2023/05/01 13:05:55;;;;;;;1.40;1.38;;;;;;;;;;5017662;28;20625;-87
2023/05/01 13:08:31;;;;;;;1.15;1.15;;;;;;;;;;5016883;28;20189;-86
2023/05/01 13:11:00;;;;;;;1.40;1.30;;;;;;;;;;5016856;28;20289;-86
2023/05/01 13:13:30;;;;;;;2.03;1.83;;;;;;;;;;5016720;28;20199;-86
2023/05/01 13:16:11;;;;;;;2.17;1.52;;;;;;;;;;5016604;28;20702;-86
2023/05/01 13:18:46;;;;;;;1.42;1.33;;;;;;;;;;4996693;28;20238;-86
2023/05/01 13:21:15;;;;;;;1.90;1.80;;;;;;;;;;4996926;28;20209;-86
2023/05/01 13:23:51;;;;;;;2.58;1.27;;;;;;;;;;4997282;28;20206;-85
2023/05/01 13:26:24;;;;;;;1.50;1.40;;;;;;;;;;4996832;28;20313;-86
2023/05/01 13:28:52;;;;;;;1.55;1.45;;;;;;;;;;4996536;28;20696;-86
2023/05/01 13:31:21;;;;;;;1.70;1.20;;;;;;;;;;4996905;28;20215;-86
2023/05/01 13:33:52;;;;;;;1.13;1.00;;;;;;;;;;4996744;28;20693;-87
2023/05/01 13:36:20;;;;;;;1.50;1.20;;;;;;;;;;4996745;28;20231;-86
2023/05/01 13:38:52;;;;;;;1.05;1.05;;;;;;;;;;5005545;28;20217;-86
2023/05/01 13:41:21;;;;;;;1.05;1.05;;;;;;;;;;5016496;28;20247;-86
2023/05/01 13:43:50;;;;;;;1.10;1.10;;;;;;;;;;5015956;28;20200;-86
2023/05/01 13:46:21;;;;;;;1.17;1.17;;;;;;;;;;5016052;28;20302;-86
2023/05/01 13:48:49;;;;;;;1.02;1.02;;;;;;;;;;5015762;28;20203;-86
2023/05/01 13:51:22;;;;;;;1.10;1.10;;;;;;;;;;5016343;28;20302;-86
2023/05/01 13:53:51;;;;;;;1.50;1.40;;;;;;;;;;5015873;28;20195;-86
2023/05/01 13:56:20;;;;;;;1.13;1.10;;;;;;;;;;5016241;28;20297;-86
2023/05/01 13:58:48;;;;;;;0.93;0.93;;;;;;;;;;5015961;28;20695;-86
2023/05/01 14:01:19;;;;;;;0.90;0.90;;;;;;;;;;5015948;28;20203;-86
2023/05/01 14:03:48;;;;;;;1.10;1.10;;;;;;;;;;5015833;28;20199;-87
2023/05/01 14:06:18;;;;;;;0.90;0.90;;;;;;;;;;5015449;28;20219;-86
2023/05/01 14:08:47;;;;;;;1.20;1.10;;;;;;;;;;5012879;28;20214;-87
2023/05/01 14:11:15;;;;;;;1.50;1.40;;;;;;;;;;4996260;28;20211;-86
2023/05/01 14:13:45;;;;;;;1.05;1.05;;;;;;;;;;4996067;28;20250;-86
2023/05/01 14:16:17;;;;;;;0.90;0.90;;;;;;;;;;4996006;28;20618;-86
2023/05/01 14:18:46;;;;;;;1.20;1.10;;;;;;;;;;5016388;28;20286;-87
2023/05/01 14:21:17;;;;;;;2.25;1.67;;;;;;;;;;5015515;28;20198;-85
2023/05/01 14:23:45;;;;;;;1.60;1.40;;;;;;;;;;5016035;28;20532;-87
2023/05/01 14:26:17;;;;;;;1.30;1.20;;;;;;;;;;5015290;28;20258;-86
2023/05/01 14:28:46;;;;;;;0.80;0.80;;;;;;;;;;5015127;28;20585;-87
2023/05/01 14:31:17;;;;;;;0.98;0.98;;;;;;;;;;5015478;28;20206;-87
2023/05/01 14:33:45;;;;;;;1.08;1.08;;;;;;;;;;5014992;28;20710;-87
2023/05/01 14:36:14;;;;;;;0.80;0.80;;;;;;;;;;5015351;28;20231;-86
2023/05/01 14:38:45;;;;;;;2.55;1.52;;;;;;;;;;5007263;28;20210;-86
2023/05/01 14:41:13;;;;;;;1.38;1.27;;;;;;;;;;4995822;28;20243;-86
2023/05/01 14:43:42;;;;;;;0.80;0.80;;;;;;;;;;4995692;28;20580;-86
2023/05/01 14:46:13;;;;;;;1.00;1.00;;;;;;;;;;4996598;28;20599;-86
2023/05/01 14:48:42;;;;;;;1.00;1.00;;;;;;;;;;5015191;28;20205;-86
2023/05/01 14:51:12;;;;;;;1.27;1.17;;;;;;;;;;5015108;28;20207;-87
2023/05/01 14:53:42;;;;;;;0.82;0.82;;;;;;;;;;5015313;28;20589;-86
2023/05/01 14:56:10;;;;;;;1.00;1.00;;;;;;;;;;5014762;28;20229;-85
2023/05/01 14:58:38;;;;;;;1.33;1.20;;;;;;;;;;5014476;28;20258;-86